sensor_id;sensor_type;location;lat;lon;timestamp;temperature;humidity
28460;DHT22;32528;45.712;9.192;2022-12-20T00:00:30;6.80;99.90
28460;DHT22;32528;45.712;9.192;2022-12-20T00:02:31;6.80;99.90
28460;DHT22;32528;45.712;9.192;2022-12-20T00:04:32;6.80;99.90
28460;DHT22;32528;45.712;9.192;2022-12-20T00:06:33;6.80;99.90
28460;DHT22;32528;45.712;9.192;2022-12-20T00:08:34;6.80;99.90
28460;DHT22;32528;45.712;9.192;2022-12-20T00:10:39;6.80;99.90
28460;DHT22;32528;45.712;9.192;2022-12-20T00:12:40;6.80;99.90
28460;DHT22;32528;45.712;9.192;2022-12-20T00:14:41;6.70;99.90
28460;DHT22;32528;45.712;9.192;2022-12-20T00:16:42;6.70;99.90
28460;DHT22;32528;45.712;9.192;2022-12-20T00:18:42;6.70;99.90
28460;DHT22;32528;45.712;9.192;2022-12-20T00:20:45;6.80;99.90
28460;DHT22;32528;45.712;9.192;2022-12-20T00:22:45;6.70;99.90
28460;DHT22;32528;45.712;9.192;2022-12-20T00:24:46;6.70;99.90
28460;DHT22;32528;45.712;9.192;2022-12-20T00:26:47;6.80;99.90
28460;DHT22;32528;45.712;9.192;2022-12-20T00:28:47;6.70;99.90
28460;DHT22;32528;45.712;9.192;2022-12-20T00:30:52;6.70;99.90
28460;DHT22;32528;45.712;9.192;2022-12-20T00:32:52;6.60;99.90
28460;DHT22;32528;45.712;9.192;2022-12-20T00:34:53;6.60;99.90
28460;DHT22;32528;45.712;9.192;2022-12-20T00:36:53;6.60;99.90
28460;DHT22;32528;45.712;9.192;2022-12-20T00:38:55;6.60;99.90
28460;DHT22;32528;45.712;9.192;2022-12-20T00:41:07;6.60;99.90
28460;DHT22;32528;45.712;9.192;2022-12-20T00:43:10;6.70;99.90
28460;DHT22;32528;45.712;9.192;2022-12-20T00:45:11;6.70;99.90
28460;DHT22;32528;45.712;9.192;2022-12-20T00:47:12;6.70;99.90
28460;DHT22;32528;45.712;9.192;2022-12-20T00:49:13;6.70;99.90
28460;DHT22;32528;45.712;9.192;2022-12-20T00:51:15;6.70;99.90
28460;DHT22;32528;45.712;9.192;2022-12-20T00:53:17;6.70;99.90
28460;DHT22;32528;45.712;9.192;2022-12-20T00:55:18;6.80;99.90
28460;DHT22;32528;45.712;9.192;2022-12-20T00:57:18;6.80;99.90
28460;DHT22;32528;45.712;9.192;2022-12-20T00:59:19;6.90;99.90
28460;DHT22;32528;45.712;9.192;2022-12-20T01:01:21;6.90;99.90
28460;DHT22;32528;45.712;9.192;2022-12-20T01:03:23;6.90;99.90
28460;DHT22;32528;45.712;9.192;2022-12-20T01:05:24;6.90;99.90
28460;DHT22;32528;45.712;9.192;2022-12-20T01:07:24;6.90;99.90
28460;DHT22;32528;45.712;9.192;2022-12-20T01:09:27;7.00;99.90
28460;DHT22;32528;45.712;9.192;2022-12-20T01:11:29;7.00;99.90
28460;DHT22;32528;45.712;9.192;2022-12-20T01:13:31;7.00;99.90
28460;DHT22;32528;45.712;9.192;2022-12-20T01:15:32;6.90;99.90
28460;DHT22;32528;45.712;9.192;2022-12-20T01:17:33;7.00;99.90
28460;DHT22;32528;45.712;9.192;2022-12-20T01:19:34;7.00;99.90
28460;DHT22;32528;45.712;9.192;2022-12-20T01:21:35;7.00;99.90
28460;DHT22;32528;45.712;9.192;2022-12-20T01:23:36;6.90;99.90
28460;DHT22;32528;45.712;9.192;2022-12-20T01:25:36;6.90;99.90
28460;DHT22;32528;45.712;9.192;2022-12-20T01:27:37;6.90;99.90
28460;DHT22;32528;45.712;9.192;2022-12-20T01:29:38;6.90;99.90
28460;DHT22;32528;45.712;9.192;2022-12-20T01:31:39;6.80;99.90
28460;DHT22;32528;45.712;9.192;2022-12-20T01:33:39;6.90;99.90
28460;DHT22;32528;45.712;9.192;2022-12-20T01:35:40;6.80;99.90
28460;DHT22;32528;45.712;9.192;2022-12-20T01:37:41;6.70;99.90
28460;DHT22;32528;45.712;9.192;2022-12-20T01:39:41;6.80;99.90
28460;DHT22;32528;45.712;9.192;2022-12-20T01:41:43;6.80;99.90
28460;DHT22;32528;45.712;9.192;2022-12-20T01:45:48;6.80;99.90
28460;DHT22;32528;45.712;9.192;2022-12-20T01:47:48;6.80;99.90
28460;DHT22;32528;45.712;9.192;2022-12-20T01:49:49;6.70;99.90
28460;DHT22;32528;45.712;9.192;2022-12-20T01:52:13;6.80;99.90
28460;DHT22;32528;45.712;9.192;2022-12-20T01:54:15;6.80;99.90
28460;DHT22;32528;45.712;9.192;2022-12-20T01:56:16;6.80;99.90
28460;DHT22;32528;45.712;9.192;2022-12-20T01:58:17;6.90;99.90
28460;DHT22;32528;45.712;9.192;2022-12-20T02:00:19;6.90;99.90
28460;DHT22;32528;45.712;9.192;2022-12-20T02:02:20;6.90;99.90
28460;DHT22;32528;45.712;9.192;2022-12-20T02:04:20;7.00;99.90
28460;DHT22;32528;45.712;9.192;2022-12-20T02:06:22;6.90;99.90
28460;DHT22;32528;45.712;9.192;2022-12-20T02:08:23;7.00;99.90
28460;DHT22;32528;45.712;9.192;2022-12-20T02:10:26;7.00;99.90
28460;DHT22;32528;45.712;9.192;2022-12-20T02:12:31;7.00;99.90
28460;DHT22;32528;45.712;9.192;2022-12-20T02:16:59;7.00;99.90
28460;DHT22;32528;45.712;9.192;2022-12-20T02:19:09;7.00;99.90
28460;DHT22;32528;45.712;9.192;2022-12-20T02:21:34;6.90;99.90
28460;DHT22;32528;45.712;9.192;2022-12-20T02:27:51;6.90;99.90
28460;DHT22;32528;45.712;9.192;2022-12-20T02:33:57;7.00;99.90
28460;DHT22;32528;45.712;9.192;2022-12-20T02:35:58;7.00;99.90
28460;DHT22;32528;45.712;9.192;2022-12-20T02:38:00;7.00;99.90
28460;DHT22;32528;45.712;9.192;2022-12-20T02:40:01;7.00;99.90
28460;DHT22;32528;45.712;9.192;2022-12-20T02:42:08;7.10;99.90
28460;DHT22;32528;45.712;9.192;2022-12-20T02:44:11;7.10;99.90
28460;DHT22;32528;45.712;9.192;2022-12-20T02:46:32;7.20;99.90
28460;DHT22;32528;45.712;9.192;2022-12-20T02:48:33;7.10;99.90
28460;DHT22;32528;45.712;9.192;2022-12-20T02:50:36;7.00;99.90
28460;DHT22;32528;45.712;9.192;2022-12-20T02:52:37;7.00;99.90
28460;DHT22;32528;45.712;9.192;2022-12-20T02:54:38;7.00;99.90
28460;DHT22;32528;45.712;9.192;2022-12-20T02:56:44;6.90;99.90
28460;DHT22;32528;45.712;9.192;2022-12-20T02:58:48;6.80;99.90
28460;DHT22;32528;45.712;9.192;2022-12-20T03:00:50;6.80;99.90
28460;DHT22;32528;45.712;9.192;2022-12-20T03:02:52;6.80;99.90
28460;DHT22;32528;45.712;9.192;2022-12-20T03:05:12;6.90;99.90
28460;DHT22;32528;45.712;9.192;2022-12-20T03:07:12;6.90;99.90
28460;DHT22;32528;45.712;9.192;2022-12-20T03:09:14;6.90;99.90
28460;DHT22;32528;45.712;9.192;2022-12-20T03:11:15;6.90;99.90
28460;DHT22;32528;45.712;9.192;2022-12-20T03:13:15;6.90;99.90
28460;DHT22;32528;45.712;9.192;2022-12-20T03:15:23;7.00;99.90
28460;DHT22;32528;45.712;9.192;2022-12-20T03:17:28;7.00;99.90
28460;DHT22;32528;45.712;9.192;2022-12-20T03:19:28;7.00;99.90
28460;DHT22;32528;45.712;9.192;2022-12-20T03:21:30;7.00;99.90
28460;DHT22;32528;45.712;9.192;2022-12-20T03:23:31;7.00;99.90
28460;DHT22;32528;45.712;9.192;2022-12-20T03:25:32;7.00;99.90
28460;DHT22;32528;45.712;9.192;2022-12-20T03:27:34;7.00;99.90
28460;DHT22;32528;45.712;9.192;2022-12-20T03:29:37;7.00;99.90
28460;DHT22;32528;45.712;9.192;2022-12-20T03:31:37;7.00;99.90
28460;DHT22;32528;45.712;9.192;2022-12-20T03:33:38;7.00;99.90
28460;DHT22;32528;45.712;9.192;2022-12-20T03:35:41;7.00;99.90
28460;DHT22;32528;45.712;9.192;2022-12-20T03:37:43;7.00;99.90
28460;DHT22;32528;45.712;9.192;2022-12-20T03:39:44;7.10;99.90
28460;DHT22;32528;45.712;9.192;2022-12-20T03:41:45;7.10;99.90
28460;DHT22;32528;45.712;9.192;2022-12-20T03:43:50;7.10;99.90
28460;DHT22;32528;45.712;9.192;2022-12-20T03:45:51;7.10;99.90
28460;DHT22;32528;45.712;9.192;2022-12-20T03:47:54;7.10;99.90
28460;DHT22;32528;45.712;9.192;2022-12-20T03:49:59;7.10;99.90
28460;DHT22;32528;45.712;9.192;2022-12-20T03:52:01;7.10;99.90
28460;DHT22;32528;45.712;9.192;2022-12-20T03:54:01;7.10;99.90
28460;DHT22;32528;45.712;9.192;2022-12-20T03:56:20;7.10;99.90
28460;DHT22;32528;45.712;9.192;2022-12-20T03:58:21;7.10;99.90
28460;DHT22;32528;45.712;9.192;2022-12-20T04:00:22;7.00;99.90
28460;DHT22;32528;45.712;9.192;2022-12-20T04:02:28;7.00;99.90
28460;DHT22;32528;45.712;9.192;2022-12-20T04:04:29;6.90;99.90
28460;DHT22;32528;45.712;9.192;2022-12-20T04:06:30;7.00;99.90
28460;DHT22;32528;45.712;9.192;2022-12-20T04:08:31;7.00;99.90
28460;DHT22;32528;45.712;9.192;2022-12-20T04:10:32;7.00;99.90
28460;DHT22;32528;45.712;9.192;2022-12-20T04:12:53;7.00;99.90
28460;DHT22;32528;45.712;9.192;2022-12-20T04:14:54;7.00;99.90
28460;DHT22;32528;45.712;9.192;2022-12-20T04:16:55;7.00;99.90
28460;DHT22;32528;45.712;9.192;2022-12-20T04:18:57;7.00;99.90
28460;DHT22;32528;45.712;9.192;2022-12-20T04:20:59;7.10;99.90
28460;DHT22;32528;45.712;9.192;2022-12-20T04:23:02;7.10;99.90
28460;DHT22;32528;45.712;9.192;2022-12-20T04:25:03;7.10;99.90
28460;DHT22;32528;45.712;9.192;2022-12-20T04:27:08;7.10;99.90
28460;DHT22;32528;45.712;9.192;2022-12-20T04:29:09;7.10;99.90
28460;DHT22;32528;45.712;9.192;2022-12-20T04:31:09;7.00;99.90
28460;DHT22;32528;45.712;9.192;2022-12-20T04:33:11;7.00;99.90
28460;DHT22;32528;45.712;9.192;2022-12-20T04:35:13;7.10;99.90
28460;DHT22;32528;45.712;9.192;2022-12-20T04:37:15;7.10;99.90
28460;DHT22;32528;45.712;9.192;2022-12-20T04:39:28;7.10;99.90
28460;DHT22;32528;45.712;9.192;2022-12-20T04:41:51;7.10;99.90
28460;DHT22;32528;45.712;9.192;2022-12-20T04:43:53;7.20;99.90
28460;DHT22;32528;45.712;9.192;2022-12-20T04:45:56;7.10;99.90
28460;DHT22;32528;45.712;9.192;2022-12-20T04:47:58;7.10;99.90
28460;DHT22;32528;45.712;9.192;2022-12-20T04:50:08;7.10;99.90
28460;DHT22;32528;45.712;9.192;2022-12-20T04:52:09;7.00;99.90
28460;DHT22;32528;45.712;9.192;2022-12-20T04:54:28;7.10;99.90
28460;DHT22;32528;45.712;9.192;2022-12-20T04:56:38;7.10;99.90
28460;DHT22;32528;45.712;9.192;2022-12-20T04:58:43;7.10;99.90
28460;DHT22;32528;45.712;9.192;2022-12-20T05:00:44;7.00;99.90
28460;DHT22;32528;45.712;9.192;2022-12-20T05:02:57;7.00;99.90
28460;DHT22;32528;45.712;9.192;2022-12-20T05:04:59;7.00;99.90
28460;DHT22;32528;45.712;9.192;2022-12-20T05:07:00;7.00;99.90
28460;DHT22;32528;45.712;9.192;2022-12-20T05:09:02;7.10;99.90
28460;DHT22;32528;45.712;9.192;2022-12-20T05:11:04;7.10;99.90
28460;DHT22;32528;45.712;9.192;2022-12-20T05:13:06;7.10;99.90
28460;DHT22;32528;45.712;9.192;2022-12-20T05:15:12;7.10;99.90
28460;DHT22;32528;45.712;9.192;2022-12-20T05:17:18;7.10;99.90
28460;DHT22;32528;45.712;9.192;2022-12-20T05:19:19;7.10;99.90
28460;DHT22;32528;45.712;9.192;2022-12-20T05:21:20;6.90;99.90
28460;DHT22;32528;45.712;9.192;2022-12-20T05:23:40;6.90;99.90
28460;DHT22;32528;45.712;9.192;2022-12-20T05:26:01;7.00;99.90
28460;DHT22;32528;45.712;9.192;2022-12-20T05:28:17;7.00;99.90
28460;DHT22;32528;45.712;9.192;2022-12-20T05:30:18;7.00;99.90
28460;DHT22;32528;45.712;9.192;2022-12-20T05:32:19;7.00;99.90
28460;DHT22;32528;45.712;9.192;2022-12-20T05:34:20;6.90;99.90
28460;DHT22;32528;45.712;9.192;2022-12-20T05:36:25;7.00;99.90
28460;DHT22;32528;45.712;9.192;2022-12-20T05:38:28;7.00;99.90
28460;DHT22;32528;45.712;9.192;2022-12-20T05:40:29;7.10;99.90
28460;DHT22;32528;45.712;9.192;2022-12-20T05:42:30;7.10;99.90
28460;DHT22;32528;45.712;9.192;2022-12-20T05:44:31;7.10;99.90
28460;DHT22;32528;45.712;9.192;2022-12-20T05:46:31;7.10;99.90
28460;DHT22;32528;45.712;9.192;2022-12-20T05:48:36;7.00;99.90
28460;DHT22;32528;45.712;9.192;2022-12-20T05:50:38;7.00;99.90
28460;DHT22;32528;45.712;9.192;2022-12-20T05:53:16;7.00;99.90
28460;DHT22;32528;45.712;9.192;2022-12-20T05:55:21;7.00;99.90
28460;DHT22;32528;45.712;9.192;2022-12-20T05:57:22;7.00;99.90
28460;DHT22;32528;45.712;9.192;2022-12-20T05:59:23;7.00;99.90
28460;DHT22;32528;45.712;9.192;2022-12-20T06:01:24;7.10;99.90
28460;DHT22;32528;45.712;9.192;2022-12-20T06:03:31;7.10;99.90
28460;DHT22;32528;45.712;9.192;2022-12-20T06:05:33;7.00;99.90
28460;DHT22;32528;45.712;9.192;2022-12-20T06:07:34;7.00;99.90
28460;DHT22;32528;45.712;9.192;2022-12-20T06:09:36;7.00;99.90
28460;DHT22;32528;45.712;9.192;2022-12-20T06:11:47;7.10;99.90
28460;DHT22;32528;45.712;9.192;2022-12-20T06:13:48;7.10;99.90
28460;DHT22;32528;45.712;9.192;2022-12-20T06:15:49;7.10;99.90
28460;DHT22;32528;45.712;9.192;2022-12-20T06:17:53;7.10;99.90
28460;DHT22;32528;45.712;9.192;2022-12-20T06:19:53;7.10;99.90
28460;DHT22;32528;45.712;9.192;2022-12-20T06:21:54;7.20;99.90
28460;DHT22;32528;45.712;9.192;2022-12-20T06:24:04;7.10;99.90
28460;DHT22;32528;45.712;9.192;2022-12-20T06:26:05;7.20;99.90
28460;DHT22;32528;45.712;9.192;2022-12-20T06:28:10;7.20;99.90
28460;DHT22;32528;45.712;9.192;2022-12-20T06:30:12;7.20;99.90
28460;DHT22;32528;45.712;9.192;2022-12-20T06:32:48;7.20;99.90
28460;DHT22;32528;45.712;9.192;2022-12-20T06:34:50;7.20;99.90
28460;DHT22;32528;45.712;9.192;2022-12-20T06:36:51;7.20;99.90
28460;DHT22;32528;45.712;9.192;2022-12-20T06:38:56;7.20;99.90
28460;DHT22;32528;45.712;9.192;2022-12-20T06:40:57;7.10;99.90
28460;DHT22;32528;45.712;9.192;2022-12-20T06:42:58;7.10;99.90
28460;DHT22;32528;45.712;9.192;2022-12-20T06:44:59;7.10;99.90
28460;DHT22;32528;45.712;9.192;2022-12-20T06:47:01;7.00;99.90
28460;DHT22;32528;45.712;9.192;2022-12-20T06:49:02;7.00;99.90
28460;DHT22;32528;45.712;9.192;2022-12-20T06:51:04;7.00;99.90
28460;DHT22;32528;45.712;9.192;2022-12-20T06:53:05;7.00;99.90
28460;DHT22;32528;45.712;9.192;2022-12-20T06:55:08;7.00;99.90
28460;DHT22;32528;45.712;9.192;2022-12-20T06:57:12;7.10;99.90
28460;DHT22;32528;45.712;9.192;2022-12-20T06:59:15;7.20;99.90
28460;DHT22;32528;45.712;9.192;2022-12-20T07:01:16;7.20;99.90
28460;DHT22;32528;45.712;9.192;2022-12-20T07:03:18;7.30;99.90
28460;DHT22;32528;45.712;9.192;2022-12-20T07:05:18;7.30;99.90
28460;DHT22;32528;45.712;9.192;2022-12-20T07:07:19;7.40;99.90
28460;DHT22;32528;45.712;9.192;2022-12-20T07:09:19;7.50;99.90
28460;DHT22;32528;45.712;9.192;2022-12-20T07:11:20;7.50;99.90
28460;DHT22;32528;45.712;9.192;2022-12-20T07:13:21;7.50;99.90
28460;DHT22;32528;45.712;9.192;2022-12-20T07:15:23;7.50;99.90
28460;DHT22;32528;45.712;9.192;2022-12-20T07:17:24;7.50;99.90
28460;DHT22;32528;45.712;9.192;2022-12-20T07:19:24;7.50;99.90
28460;DHT22;32528;45.712;9.192;2022-12-20T07:21:25;7.40;99.90
28460;DHT22;32528;45.712;9.192;2022-12-20T07:23:26;7.40;99.90
28460;DHT22;32528;45.712;9.192;2022-12-20T07:25:27;7.40;99.90
28460;DHT22;32528;45.712;9.192;2022-12-20T07:27:28;7.50;99.90
28460;DHT22;32528;45.712;9.192;2022-12-20T07:29:28;7.50;99.90
28460;DHT22;32528;45.712;9.192;2022-12-20T07:31:29;7.40;99.90
28460;DHT22;32528;45.712;9.192;2022-12-20T07:33:30;7.50;99.90
28460;DHT22;32528;45.712;9.192;2022-12-20T07:35:31;7.40;99.90
28460;DHT22;32528;45.712;9.192;2022-12-20T07:37:31;7.40;99.90
28460;DHT22;32528;45.712;9.192;2022-12-20T07:39:32;7.40;99.90
28460;DHT22;32528;45.712;9.192;2022-12-20T07:41:32;7.40;99.90
28460;DHT22;32528;45.712;9.192;2022-12-20T07:43:33;7.50;99.90
28460;DHT22;32528;45.712;9.192;2022-12-20T07:45:34;7.50;99.90
28460;DHT22;32528;45.712;9.192;2022-12-20T07:47:35;7.50;99.90
28460;DHT22;32528;45.712;9.192;2022-12-20T07:49:35;7.40;99.90
28460;DHT22;32528;45.712;9.192;2022-12-20T07:51:39;7.50;99.90
28460;DHT22;32528;45.712;9.192;2022-12-20T07:53:42;7.50;99.90
28460;DHT22;32528;45.712;9.192;2022-12-20T07:55:44;7.60;99.90
28460;DHT22;32528;45.712;9.192;2022-12-20T07:57:46;7.60;99.90
28460;DHT22;32528;45.712;9.192;2022-12-20T07:59:49;7.70;99.90
28460;DHT22;32528;45.712;9.192;2022-12-20T08:01:50;7.70;99.90
28460;DHT22;32528;45.712;9.192;2022-12-20T08:03:52;7.80;99.90
28460;DHT22;32528;45.712;9.192;2022-12-20T08:05:54;7.80;99.90
28460;DHT22;32528;45.712;9.192;2022-12-20T08:07:57;7.80;99.90
28460;DHT22;32528;45.712;9.192;2022-12-20T08:09:58;7.90;99.90
28460;DHT22;32528;45.712;9.192;2022-12-20T08:12:00;7.90;99.90
28460;DHT22;32528;45.712;9.192;2022-12-20T08:14:01;8.00;99.90
28460;DHT22;32528;45.712;9.192;2022-12-20T08:16:02;8.00;99.90
28460;DHT22;32528;45.712;9.192;2022-12-20T08:18:03;8.10;99.90
28460;DHT22;32528;45.712;9.192;2022-12-20T08:20:05;8.10;99.90
28460;DHT22;32528;45.712;9.192;2022-12-20T08:22:07;8.10;99.90
28460;DHT22;32528;45.712;9.192;2022-12-20T08:24:09;8.10;99.90
28460;DHT22;32528;45.712;9.192;2022-12-20T08:26:09;8.20;99.90
28460;DHT22;32528;45.712;9.192;2022-12-20T08:28:11;8.20;99.90
28460;DHT22;32528;45.712;9.192;2022-12-20T08:30:11;8.10;99.90
28460;DHT22;32528;45.712;9.192;2022-12-20T08:32:13;8.10;99.90
28460;DHT22;32528;45.712;9.192;2022-12-20T08:34:15;8.00;99.90
28460;DHT22;32528;45.712;9.192;2022-12-20T08:36:16;8.00;99.90
28460;DHT22;32528;45.712;9.192;2022-12-20T08:38:16;8.00;99.90
28460;DHT22;32528;45.712;9.192;2022-12-20T08:40:17;8.00;99.90
28460;DHT22;32528;45.712;9.192;2022-12-20T08:42:18;8.00;99.90
28460;DHT22;32528;45.712;9.192;2022-12-20T08:44:19;8.00;99.90
28460;DHT22;32528;45.712;9.192;2022-12-20T08:46:19;8.10;99.90
28460;DHT22;32528;45.712;9.192;2022-12-20T08:48:20;8.10;99.90
28460;DHT22;32528;45.712;9.192;2022-12-20T08:50:21;8.20;99.90
28460;DHT22;32528;45.712;9.192;2022-12-20T08:52:22;8.20;99.90
28460;DHT22;32528;45.712;9.192;2022-12-20T08:54:23;8.30;99.90
28460;DHT22;32528;45.712;9.192;2022-12-20T08:56:23;8.30;99.90
28460;DHT22;32528;45.712;9.192;2022-12-20T08:58:24;8.40;99.90
28460;DHT22;32528;45.712;9.192;2022-12-20T09:00:24;8.40;99.90
28460;DHT22;32528;45.712;9.192;2022-12-20T09:02:25;8.50;99.90
28460;DHT22;32528;45.712;9.192;2022-12-20T09:04:25;8.50;99.90
28460;DHT22;32528;45.712;9.192;2022-12-20T09:06:26;8.40;99.90
28460;DHT22;32528;45.712;9.192;2022-12-20T09:08:27;8.50;99.90
28460;DHT22;32528;45.712;9.192;2022-12-20T09:10:27;8.50;99.90
28460;DHT22;32528;45.712;9.192;2022-12-20T09:12:28;8.50;99.90
28460;DHT22;32528;45.712;9.192;2022-12-20T09:14:29;8.50;99.90
28460;DHT22;32528;45.712;9.192;2022-12-20T09:16:31;8.60;99.90
28460;DHT22;32528;45.712;9.192;2022-12-20T09:18:32;8.70;99.90
28460;DHT22;32528;45.712;9.192;2022-12-20T09:20:33;8.60;99.90
28460;DHT22;32528;45.712;9.192;2022-12-20T09:22:34;8.60;99.90
28460;DHT22;32528;45.712;9.192;2022-12-20T09:24:36;8.60;99.90
28460;DHT22;32528;45.712;9.192;2022-12-20T09:26:37;8.60;99.90
28460;DHT22;32528;45.712;9.192;2022-12-20T09:28:40;8.60;99.90
28460;DHT22;32528;45.712;9.192;2022-12-20T09:30:41;8.60;99.90
28460;DHT22;32528;45.712;9.192;2022-12-20T09:32:42;8.70;99.90
28460;DHT22;32528;45.712;9.192;2022-12-20T09:34:42;8.60;99.90
28460;DHT22;32528;45.712;9.192;2022-12-20T09:36:43;8.70;99.90
28460;DHT22;32528;45.712;9.192;2022-12-20T09:38:44;8.70;99.90
28460;DHT22;32528;45.712;9.192;2022-12-20T09:40:46;8.80;99.90
28460;DHT22;32528;45.712;9.192;2022-12-20T09:42:48;8.70;99.90
28460;DHT22;32528;45.712;9.192;2022-12-20T09:44:49;8.70;99.90
28460;DHT22;32528;45.712;9.192;2022-12-20T09:46:53;8.70;99.90
28460;DHT22;32528;45.712;9.192;2022-12-20T09:48:55;8.80;99.90
28460;DHT22;32528;45.712;9.192;2022-12-20T09:57:16;8.90;99.90
28460;DHT22;32528;45.712;9.192;2022-12-20T09:59:19;9.00;99.90
28460;DHT22;32528;45.712;9.192;2022-12-20T10:01:20;9.10;99.90
28460;DHT22;32528;45.712;9.192;2022-12-20T10:03:22;8.90;99.90
28460;DHT22;32528;45.712;9.192;2022-12-20T10:05:37;9.00;99.90
28460;DHT22;32528;45.712;9.192;2022-12-20T10:07:52;9.00;99.90
28460;DHT22;32528;45.712;9.192;2022-12-20T10:16:34;9.00;99.90
28460;DHT22;32528;45.712;9.192;2022-12-20T10:21:00;9.20;99.90
28460;DHT22;32528;45.712;9.192;2022-12-20T10:23:06;9.30;99.90
28460;DHT22;32528;45.712;9.192;2022-12-20T10:25:16;9.40;99.90
28460;DHT22;32528;45.712;9.192;2022-12-20T10:27:18;9.40;99.90
28460;DHT22;32528;45.712;9.192;2022-12-20T10:29:19;9.50;99.90
28460;DHT22;32528;45.712;9.192;2022-12-20T10:31:20;9.50;99.90
28460;DHT22;32528;45.712;9.192;2022-12-20T10:33:22;9.60;99.90
28460;DHT22;32528;45.712;9.192;2022-12-20T10:37:24;9.70;99.90
28460;DHT22;32528;45.712;9.192;2022-12-20T10:39:39;9.60;99.90
28460;DHT22;32528;45.712;9.192;2022-12-20T10:43:41;9.60;99.90
28460;DHT22;32528;45.712;9.192;2022-12-20T10:45:43;9.70;99.90
28460;DHT22;32528;45.712;9.192;2022-12-20T10:47:45;9.70;99.90
28460;DHT22;32528;45.712;9.192;2022-12-20T10:49:47;9.70;99.90
28460;DHT22;32528;45.712;9.192;2022-12-20T10:51:54;9.70;99.90
28460;DHT22;32528;45.712;9.192;2022-12-20T10:53:56;9.80;99.90
28460;DHT22;32528;45.712;9.192;2022-12-20T11:00:28;9.90;99.90
28460;DHT22;32528;45.712;9.192;2022-12-20T11:04:35;9.80;99.90
28460;DHT22;32528;45.712;9.192;2022-12-20T11:08:38;9.80;99.90
28460;DHT22;32528;45.712;9.192;2022-12-20T11:10:39;9.70;99.90
28460;DHT22;32528;45.712;9.192;2022-12-20T11:12:51;9.70;99.90
28460;DHT22;32528;45.712;9.192;2022-12-20T11:15:06;9.70;99.90
28460;DHT22;32528;45.712;9.192;2022-12-20T11:19:29;9.70;99.90
28460;DHT22;32528;45.712;9.192;2022-12-20T11:23:37;9.70;99.90
28460;DHT22;32528;45.712;9.192;2022-12-20T11:34:25;10.30;99.20
28460;DHT22;32528;45.712;9.192;2022-12-20T11:47:31;10.50;98.50
28460;DHT22;32528;45.712;9.192;2022-12-20T11:52:22;10.50;98.40
28460;DHT22;32528;45.712;9.192;2022-12-20T11:54:29;10.50;98.50
28460;DHT22;32528;45.712;9.192;2022-12-20T11:56:34;10.50;98.20
28460;DHT22;32528;45.712;9.192;2022-12-20T11:58:47;10.40;98.50
28460;DHT22;32528;45.712;9.192;2022-12-20T12:04:59;10.30;98.80
28460;DHT22;32528;45.712;9.192;2022-12-20T12:07:02;10.20;98.80
28460;DHT22;32528;45.712;9.192;2022-12-20T12:11:26;10.00;98.80
28460;DHT22;32528;45.712;9.192;2022-12-20T12:13:32;10.00;98.90
28460;DHT22;32528;45.712;9.192;2022-12-20T12:15:36;10.00;98.90
28460;DHT22;32528;45.712;9.192;2022-12-20T12:17:43;10.00;98.50
28460;DHT22;32528;45.712;9.192;2022-12-20T12:19:47;10.00;98.90
28460;DHT22;32528;45.712;9.192;2022-12-20T12:21:50;10.00;98.30
28460;DHT22;32528;45.712;9.192;2022-12-20T12:24:04;10.00;98.50
28460;DHT22;32528;45.712;9.192;2022-12-20T12:28:18;9.90;98.70
28460;DHT22;32528;45.712;9.192;2022-12-20T12:30:19;10.00;98.60
28460;DHT22;32528;45.712;9.192;2022-12-20T12:36:53;10.10;98.00
28460;DHT22;32528;45.712;9.192;2022-12-20T12:45:25;10.60;97.60
28460;DHT22;32528;45.712;9.192;2022-12-20T12:47:33;10.50;97.20
28460;DHT22;32528;45.712;9.192;2022-12-20T12:49:35;10.50;97.30
28460;DHT22;32528;45.712;9.192;2022-12-20T12:51:38;10.40;97.30
28460;DHT22;32528;45.712;9.192;2022-12-20T12:53:43;10.50;97.40
28460;DHT22;32528;45.712;9.192;2022-12-20T12:55:51;10.50;97.20
28460;DHT22;32528;45.712;9.192;2022-12-20T12:57:56;10.60;97.30
28460;DHT22;32528;45.712;9.192;2022-12-20T12:59:56;10.60;97.40
28460;DHT22;32528;45.712;9.192;2022-12-20T13:08:45;10.60;97.10
28460;DHT22;32528;45.712;9.192;2022-12-20T13:14:50;10.50;97.80
28460;DHT22;32528;45.712;9.192;2022-12-20T13:16:52;10.40;97.40
28460;DHT22;32528;45.712;9.192;2022-12-20T13:18:58;10.30;97.50
28460;DHT22;32528;45.712;9.192;2022-12-20T13:23:20;10.30;97.50
28460;DHT22;32528;45.712;9.192;2022-12-20T13:25:27;10.40;97.60
28460;DHT22;32528;45.712;9.192;2022-12-20T13:29:33;10.50;97.50
28460;DHT22;32528;45.712;9.192;2022-12-20T13:31:35;10.50;97.40
28460;DHT22;32528;45.712;9.192;2022-12-20T13:35:45;10.20;97.30
28460;DHT22;32528;45.712;9.192;2022-12-20T13:38:02;10.10;97.90
28460;DHT22;32528;45.712;9.192;2022-12-20T13:40:13;10.20;97.80
28460;DHT22;32528;45.712;9.192;2022-12-20T13:44:30;10.20;97.90
28460;DHT22;32528;45.712;9.192;2022-12-20T13:46:41;10.20;97.90
28460;DHT22;32528;45.712;9.192;2022-12-20T13:50:49;10.20;97.90
28460;DHT22;32528;45.712;9.192;2022-12-20T13:52:52;10.20;97.70
28460;DHT22;32528;45.712;9.192;2022-12-20T13:54:55;10.20;97.60
28460;DHT22;32528;45.712;9.192;2022-12-20T13:56:57;10.20;97.40
28460;DHT22;32528;45.712;9.192;2022-12-20T13:59:03;10.30;97.40
28460;DHT22;32528;45.712;9.192;2022-12-20T14:01:21;10.30;97.30
28460;DHT22;32528;45.712;9.192;2022-12-20T14:03:26;10.20;97.40
28460;DHT22;32528;45.712;9.192;2022-12-20T14:05:33;10.10;97.80
28460;DHT22;32528;45.712;9.192;2022-12-20T14:07:33;10.20;97.90
28460;DHT22;32528;45.712;9.192;2022-12-20T14:09:35;10.10;97.80
28460;DHT22;32528;45.712;9.192;2022-12-20T14:11:38;10.00;98.00
28460;DHT22;32528;45.712;9.192;2022-12-20T14:13:59;10.00;98.00
28460;DHT22;32528;45.712;9.192;2022-12-20T14:16:10;10.00;98.00
28460;DHT22;32528;45.712;9.192;2022-12-20T14:18:20;10.00;97.80
28460;DHT22;32528;45.712;9.192;2022-12-20T14:20:31;10.00;97.70
28460;DHT22;32528;45.712;9.192;2022-12-20T14:22:34;10.10;97.60
28460;DHT22;32528;45.712;9.192;2022-12-20T14:24:35;10.10;98.00
28460;DHT22;32528;45.712;9.192;2022-12-20T14:26:42;10.10;98.00
28460;DHT22;32528;45.712;9.192;2022-12-20T14:28:45;10.00;97.80
28460;DHT22;32528;45.712;9.192;2022-12-20T14:30:47;10.00;97.90
28460;DHT22;32528;45.712;9.192;2022-12-20T14:32:48;10.10;98.00
28460;DHT22;32528;45.712;9.192;2022-12-20T14:34:49;10.10;97.80
28460;DHT22;32528;45.712;9.192;2022-12-20T14:36:51;10.10;98.00
28460;DHT22;32528;45.712;9.192;2022-12-20T14:38:52;10.20;97.70
28460;DHT22;32528;45.712;9.192;2022-12-20T14:40:52;10.20;97.80
28460;DHT22;32528;45.712;9.192;2022-12-20T14:42:53;10.10;98.00
28460;DHT22;32528;45.712;9.192;2022-12-20T14:47:18;10.20;97.90
28460;DHT22;32528;45.712;9.192;2022-12-20T14:49:23;10.10;98.00
28460;DHT22;32528;45.712;9.192;2022-12-20T14:51:25;10.10;97.90
28460;DHT22;32528;45.712;9.192;2022-12-20T14:53:25;10.10;98.10
28460;DHT22;32528;45.712;9.192;2022-12-20T14:55:31;10.00;97.90
28460;DHT22;32528;45.712;9.192;2022-12-20T14:59:35;9.90;98.10
28460;DHT22;32528;45.712;9.192;2022-12-20T15:01:36;9.90;98.20